Main page
METAR-TAF:

METAR-TAF

Airports :

Nouakchott–Oumtounsy International Airport

Nouakchott, Mauritania

latitude: 18-18-36N, longitude: 015-58-11W, elevation: 3 m

Current weather observation

The report was made 19 minutes ago, at 02:30 UTC
Wind 6 kt from the West/Southwest, varying between South/Southwest and West/Northwest
Temperature 17°C
Humidity 94%
Pressure 1009 hPa
Visibility 10 km or more
no clouds below 1500 m and no cumulonimbus

METAR: GQNO 230230Z 24006KT 200V290 CAVOK 17/16 Q1009 NOSIG

Time: 02:49 (02:49 UTC)

Forecast

The report was made 3 hours and 49 minutes ago, at 23:00 UTC
Forecast valid from 23 at 00 UTC to 24 at 06 UTC
Wind 8 kt from the West/Northwest
Visibility: 7000 m

TAF: GQNO 222300Z 2300/2406 29008KT 7000 NSC

Weather observations and forecasts of more than 4000 airports (METAR and TAF reports).

The available stations are represented by yellow and red dots on the map.

Hover mouse over dot to see the name of the station.

Then click to see weather observations and forecasts.

To change the map : click on the green buttons with a black cross to zoom in, on the green button with a dash to zoom out, or on the green arrows for adjacent maps.


METAR-TAF: